Terminal Aerodrome Forecast
Issued by NWS Pittsburgh, PA

Current Version | Previous Version | Graphics & Text | Print | Product List | Glossary On
Versions: 1 2 3 4 5 6 7 8 9 10 11 12 13 14 15 16 17 18 19 20 21 22 23 24 25 26 27
000
FTUS41 KPBZ 171726
TAFPIT
TAF
KPIT 171726Z 1718/1824 19005KT P6SM OVC150
     FM172100 20004KT 6SM -RA OVC060
     FM180000 20004KT P6SM OVC045
     FM180800 22005KT 5SM -DZ BR OVC015
     FM181500 23006KT 6SM -DZ OVC008=

USA.gov is the U.S. government's official web portal to all federal, state and local government web resources and services.